sensor_id;sensor_type;location;lat;lon;timestamp;P1;durP1;ratioP1;P2;durP2;ratioP2
61015;SDS011;46902;52.920;6.536;2023-11-21T00:00:37;37.95;;;15.65;;
61015;SDS011;46902;52.920;6.536;2023-11-21T00:03:03;37.58;;;15.65;;
61015;SDS011;46902;52.920;6.536;2023-11-21T00:05:29;36.92;;;16.33;;
61015;SDS011;46902;52.920;6.536;2023-11-21T00:07:54;37.67;;;16.73;;
61015;SDS011;46902;52.920;6.536;2023-11-21T00:10:20;33.92;;;15.65;;
61015;SDS011;46902;52.920;6.536;2023-11-21T00:12:46;33.83;;;16.02;;
61015;SDS011;46902;52.920;6.536;2023-11-21T00:15:13;42.55;;;16.42;;
61015;SDS011;46902;52.920;6.536;2023-11-21T00:17:39;36.95;;;16.08;;
61015;SDS011;46902;52.920;6.536;2023-11-21T00:20:05;38.78;;;17.42;;
61015;SDS011;46902;52.920;6.536;2023-11-21T00:22:32;39.70;;;17.42;;
61015;SDS011;46902;52.920;6.536;2023-11-21T00:25:01;38.65;;;16.65;;
61015;SDS011;46902;52.920;6.536;2023-11-21T00:27:29;34.53;;;15.85;;
61015;SDS011;46902;52.920;6.536;2023-11-21T00:29:54;39.75;;;17.20;;
61015;SDS011;46902;52.920;6.536;2023-11-21T00:32:20;40.92;;;17.65;;
61015;SDS011;46902;52.920;6.536;2023-11-21T00:34:46;39.40;;;16.73;;
61015;SDS011;46902;52.920;6.536;2023-11-21T00:37:11;38.25;;;15.13;;
61015;SDS011;46902;52.920;6.536;2023-11-21T00:39:37;35.92;;;16.27;;
61015;SDS011;46902;52.920;6.536;2023-11-21T00:42:02;42.00;;;16.83;;
61015;SDS011;46902;52.920;6.536;2023-11-21T00:44:29;44.38;;;17.65;;
61015;SDS011;46902;52.920;6.536;2023-11-21T00:46:55;40.72;;;16.77;;
61015;SDS011;46902;52.920;6.536;2023-11-21T00:49:21;35.65;;;15.88;;
61015;SDS011;46902;52.920;6.536;2023-11-21T00:51:46;36.35;;;16.98;;
61015;SDS011;46902;52.920;6.536;2023-11-21T00:54:12;40.15;;;16.92;;
61015;SDS011;46902;52.920;6.536;2023-11-21T00:56:37;38.40;;;17.08;;
61015;SDS011;46902;52.920;6.536;2023-11-21T00:59:05;40.05;;;16.02;;
61015;SDS011;46902;52.920;6.536;2023-11-21T01:01:30;41.10;;;15.98;;
61015;SDS011;46902;52.920;6.536;2023-11-21T01:03:56;38.10;;;16.02;;
61015;SDS011;46902;52.920;6.536;2023-11-21T01:06:21;37.70;;;15.68;;
61015;SDS011;46902;52.920;6.536;2023-11-21T01:08:47;39.00;;;15.15;;
61015;SDS011;46902;52.920;6.536;2023-11-21T01:11:13;36.45;;;14.75;;
61015;SDS011;46902;52.920;6.536;2023-11-21T01:13:39;39.55;;;15.30;;
61015;SDS011;46902;52.920;6.536;2023-11-21T01:16:05;43.05;;;16.50;;
61015;SDS011;46902;52.920;6.536;2023-11-21T01:18:31;48.03;;;17.02;;
61015;SDS011;46902;52.920;6.536;2023-11-21T01:20:57;39.88;;;15.82;;
61015;SDS011;46902;52.920;6.536;2023-11-21T01:23:23;40.42;;;15.13;;
61015;SDS011;46902;52.920;6.536;2023-11-21T01:25:48;40.15;;;15.52;;
61015;SDS011;46902;52.920;6.536;2023-11-21T01:28:16;45.55;;;15.95;;
61015;SDS011;46902;52.920;6.536;2023-11-21T01:30:42;39.67;;;15.20;;
61015;SDS011;46902;52.920;6.536;2023-11-21T01:33:07;34.63;;;14.43;;
61015;SDS011;46902;52.920;6.536;2023-11-21T01:35:33;34.08;;;14.55;;
61015;SDS011;46902;52.920;6.536;2023-11-21T01:37:59;41.95;;;15.75;;
61015;SDS011;46902;52.920;6.536;2023-11-21T01:40:24;35.28;;;13.98;;
61015;SDS011;46902;52.920;6.536;2023-11-21T01:42:50;40.10;;;14.02;;
61015;SDS011;46902;52.920;6.536;2023-11-21T01:45:18;35.60;;;15.10;;
61015;SDS011;46902;52.920;6.536;2023-11-21T01:47:44;43.47;;;15.27;;
61015;SDS011;46902;52.920;6.536;2023-11-21T01:50:12;38.80;;;14.57;;
61015;SDS011;46902;52.920;6.536;2023-11-21T01:52:40;43.03;;;15.80;;
61015;SDS011;46902;52.920;6.536;2023-11-21T01:55:07;41.95;;;16.15;;
61015;SDS011;46902;52.920;6.536;2023-11-21T01:57:34;43.05;;;17.02;;
61015;SDS011;46902;52.920;6.536;2023-11-21T02:00:03;47.97;;;17.08;;
61015;SDS011;46902;52.920;6.536;2023-11-21T02:02:41;39.38;;;16.60;;
61015;SDS011;46902;52.920;6.536;2023-11-21T02:05:14;50.00;;;17.67;;
61015;SDS011;46902;52.920;6.536;2023-11-21T02:07:42;44.38;;;16.88;;
61015;SDS011;46902;52.920;6.536;2023-11-21T02:10:12;41.30;;;15.65;;
61015;SDS011;46902;52.920;6.536;2023-11-21T02:12:42;43.95;;;16.33;;
61015;SDS011;46902;52.920;6.536;2023-11-21T02:15:12;43.70;;;16.27;;
61015;SDS011;46902;52.920;6.536;2023-11-21T02:17:51;42.83;;;16.60;;
61015;SDS011;46902;52.920;6.536;2023-11-21T02:20:18;39.00;;;16.38;;
61015;SDS011;46902;52.920;6.536;2023-11-21T02:22:53;48.47;;;18.55;;
61015;SDS011;46902;52.920;6.536;2023-11-21T02:25:29;50.92;;;17.88;;
61015;SDS011;46902;52.920;6.536;2023-11-21T02:28:01;50.72;;;18.40;;
61015;SDS011;46902;52.920;6.536;2023-11-21T02:30:27;50.92;;;18.30;;
61015;SDS011;46902;52.920;6.536;2023-11-21T02:32:54;47.55;;;18.08;;
61015;SDS011;46902;52.920;6.536;2023-11-21T02:35:22;49.65;;;18.20;;
61015;SDS011;46902;52.920;6.536;2023-11-21T02:37:50;48.30;;;18.17;;
61015;SDS011;46902;52.920;6.536;2023-11-21T02:40:17;55.97;;;19.45;;
61015;SDS011;46902;52.920;6.536;2023-11-21T02:42:49;52.53;;;19.73;;
61015;SDS011;46902;52.920;6.536;2023-11-21T02:45:16;48.15;;;19.35;;
61015;SDS011;46902;52.920;6.536;2023-11-21T02:47:42;57.08;;;18.65;;
61015;SDS011;46902;52.920;6.536;2023-11-21T02:50:09;48.05;;;18.40;;
61015;SDS011;46902;52.920;6.536;2023-11-21T02:52:35;62.53;;;20.75;;
61015;SDS011;46902;52.920;6.536;2023-11-21T02:55:01;51.83;;;18.92;;
61015;SDS011;46902;52.920;6.536;2023-11-21T02:57:27;42.05;;;16.95;;
61015;SDS011;46902;52.920;6.536;2023-11-21T02:59:53;46.15;;;18.75;;
61015;SDS011;46902;52.920;6.536;2023-11-21T03:02:19;52.42;;;18.88;;
61015;SDS011;46902;52.920;6.536;2023-11-21T03:04:45;49.75;;;20.23;;
61015;SDS011;46902;52.920;6.536;2023-11-21T03:07:10;44.30;;;18.08;;
61015;SDS011;46902;52.920;6.536;2023-11-21T03:09:36;46.45;;;19.25;;
61015;SDS011;46902;52.920;6.536;2023-11-21T03:12:02;51.10;;;20.45;;
61015;SDS011;46902;52.920;6.536;2023-11-21T03:14:28;51.95;;;19.65;;
61015;SDS011;46902;52.920;6.536;2023-11-21T03:16:53;43.95;;;18.35;;
61015;SDS011;46902;52.920;6.536;2023-11-21T03:19:19;56.78;;;20.88;;
61015;SDS011;46902;52.920;6.536;2023-11-21T03:21:44;49.45;;;19.60;;
61015;SDS011;46902;52.920;6.536;2023-11-21T03:24:10;48.30;;;19.63;;
61015;SDS011;46902;52.920;6.536;2023-11-21T03:26:36;44.22;;;17.95;;
61015;SDS011;46902;52.920;6.536;2023-11-21T03:29:03;54.85;;;20.35;;
61015;SDS011;46902;52.920;6.536;2023-11-21T03:31:29;52.97;;;19.98;;
61015;SDS011;46902;52.920;6.536;2023-11-21T03:33:55;56.05;;;21.13;;
61015;SDS011;46902;52.920;6.536;2023-11-21T03:36:21;58.40;;;21.80;;
61015;SDS011;46902;52.920;6.536;2023-11-21T03:38:47;48.65;;;20.52;;
61015;SDS011;46902;52.920;6.536;2023-11-21T03:41:13;56.13;;;20.70;;
61015;SDS011;46902;52.920;6.536;2023-11-21T03:43:39;59.22;;;22.52;;
61015;SDS011;46902;52.920;6.536;2023-11-21T03:46:05;53.15;;;20.42;;
61015;SDS011;46902;52.920;6.536;2023-11-21T03:48:32;49.88;;;20.85;;
61015;SDS011;46902;52.920;6.536;2023-11-21T03:50:58;50.33;;;20.02;;
61015;SDS011;46902;52.920;6.536;2023-11-21T03:53:23;46.20;;;19.05;;
61015;SDS011;46902;52.920;6.536;2023-11-21T03:55:49;57.05;;;22.13;;
61015;SDS011;46902;52.920;6.536;2023-11-21T03:58:15;52.42;;;20.50;;
61015;SDS011;46902;52.920;6.536;2023-11-21T04:00:40;52.78;;;19.88;;
61015;SDS011;46902;52.920;6.536;2023-11-21T04:03:06;50.58;;;20.17;;
61015;SDS011;46902;52.920;6.536;2023-11-21T04:05:32;68.20;;;23.17;;
61015;SDS011;46902;52.920;6.536;2023-11-21T04:07:57;47.25;;;20.80;;
61015;SDS011;46902;52.920;6.536;2023-11-21T04:10:23;64.50;;;22.80;;
61015;SDS011;46902;52.920;6.536;2023-11-21T04:12:49;61.90;;;22.35;;
61015;SDS011;46902;52.920;6.536;2023-11-21T04:15:14;45.25;;;20.20;;
61015;SDS011;46902;52.920;6.536;2023-11-21T04:17:40;42.00;;;19.30;;
61015;SDS011;46902;52.920;6.536;2023-11-21T04:20:07;46.40;;;21.23;;
61015;SDS011;46902;52.920;6.536;2023-11-21T04:22:38;45.70;;;20.70;;
61015;SDS011;46902;52.920;6.536;2023-11-21T04:25:12;47.15;;;19.80;;
61015;SDS011;46902;52.920;6.536;2023-11-21T04:27:39;55.50;;;22.40;;
61015;SDS011;46902;52.920;6.536;2023-11-21T04:30:08;49.13;;;20.02;;
61015;SDS011;46902;52.920;6.536;2023-11-21T04:32:35;53.95;;;22.23;;
61015;SDS011;46902;52.920;6.536;2023-11-21T04:35:00;45.53;;;19.90;;
61015;SDS011;46902;52.920;6.536;2023-11-21T04:37:26;40.40;;;19.70;;
61015;SDS011;46902;52.920;6.536;2023-11-21T04:39:52;44.65;;;20.20;;
61015;SDS011;46902;52.920;6.536;2023-11-21T04:42:17;44.92;;;19.38;;
61015;SDS011;46902;52.920;6.536;2023-11-21T04:44:43;42.45;;;20.30;;
61015;SDS011;46902;52.920;6.536;2023-11-21T04:47:09;41.75;;;19.88;;
61015;SDS011;46902;52.920;6.536;2023-11-21T04:49:35;46.78;;;20.80;;
61015;SDS011;46902;52.920;6.536;2023-11-21T04:52:00;41.03;;;19.88;;
61015;SDS011;46902;52.920;6.536;2023-11-21T04:54:26;43.85;;;20.65;;
61015;SDS011;46902;52.920;6.536;2023-11-21T04:56:52;39.70;;;20.58;;
61015;SDS011;46902;52.920;6.536;2023-11-21T04:59:18;42.28;;;20.25;;
61015;SDS011;46902;52.920;6.536;2023-11-21T05:01:43;45.08;;;20.02;;
61015;SDS011;46902;52.920;6.536;2023-11-21T05:04:09;43.88;;;20.08;;
61015;SDS011;46902;52.920;6.536;2023-11-21T05:06:34;67.35;;;23.42;;
61015;SDS011;46902;52.920;6.536;2023-11-21T05:09:00;39.30;;;19.25;;
61015;SDS011;46902;52.920;6.536;2023-11-21T05:11:26;34.67;;;18.88;;
61015;SDS011;46902;52.920;6.536;2023-11-21T05:13:54;34.88;;;17.90;;
61015;SDS011;46902;52.920;6.536;2023-11-21T05:16:25;41.00;;;19.20;;
61015;SDS011;46902;52.920;6.536;2023-11-21T05:18:52;34.80;;;18.58;;
61015;SDS011;46902;52.920;6.536;2023-11-21T05:21:18;44.15;;;20.70;;
61015;SDS011;46902;52.920;6.536;2023-11-21T05:23:46;51.03;;;21.83;;
61015;SDS011;46902;52.920;6.536;2023-11-21T05:26:11;45.17;;;20.52;;
61015;SDS011;46902;52.920;6.536;2023-11-21T05:28:37;37.50;;;19.42;;
61015;SDS011;46902;52.920;6.536;2023-11-21T05:31:02;39.20;;;19.92;;
61015;SDS011;46902;52.920;6.536;2023-11-21T05:33:28;39.42;;;18.60;;
61015;SDS011;46902;52.920;6.536;2023-11-21T05:35:53;42.28;;;19.88;;
61015;SDS011;46902;52.920;6.536;2023-11-21T05:38:19;28.60;;;16.38;;
61015;SDS011;46902;52.920;6.536;2023-11-21T05:40:47;44.75;;;21.85;;
61015;SDS011;46902;52.920;6.536;2023-11-21T05:43:12;46.65;;;20.58;;
61015;SDS011;46902;52.920;6.536;2023-11-21T05:45:38;59.72;;;23.42;;
61015;SDS011;46902;52.920;6.536;2023-11-21T05:48:04;50.42;;;22.70;;
61015;SDS011;46902;52.920;6.536;2023-11-21T05:50:31;46.67;;;21.13;;
61015;SDS011;46902;52.920;6.536;2023-11-21T05:52:57;47.25;;;21.75;;
61015;SDS011;46902;52.920;6.536;2023-11-21T05:55:25;41.25;;;21.25;;
61015;SDS011;46902;52.920;6.536;2023-11-21T05:57:51;49.83;;;21.27;;
61015;SDS011;46902;52.920;6.536;2023-11-21T06:00:16;46.72;;;19.77;;
61015;SDS011;46902;52.920;6.536;2023-11-21T06:02:47;48.20;;;19.92;;
61015;SDS011;46902;52.920;6.536;2023-11-21T06:05:17;33.60;;;17.70;;
61015;SDS011;46902;52.920;6.536;2023-11-21T06:07:44;32.15;;;15.93;;
61015;SDS011;46902;52.920;6.536;2023-11-21T06:10:10;41.25;;;18.15;;
61015;SDS011;46902;52.920;6.536;2023-11-21T06:12:38;30.20;;;16.33;;
61015;SDS011;46902;52.920;6.536;2023-11-21T06:15:05;47.17;;;19.30;;
61015;SDS011;46902;52.920;6.536;2023-11-21T06:17:34;38.47;;;18.23;;
61015;SDS011;46902;52.920;6.536;2023-11-21T06:20:06;36.45;;;17.25;;
61015;SDS011;46902;52.920;6.536;2023-11-21T06:22:36;39.63;;;18.25;;
61015;SDS011;46902;52.920;6.536;2023-11-21T06:25:06;44.05;;;18.88;;
61015;SDS011;46902;52.920;6.536;2023-11-21T06:27:33;47.85;;;18.75;;
61015;SDS011;46902;52.920;6.536;2023-11-21T06:29:59;54.13;;;20.67;;
61015;SDS011;46902;52.920;6.536;2023-11-21T06:32:25;53.75;;;21.48;;
61015;SDS011;46902;52.920;6.536;2023-11-21T06:34:51;49.80;;;21.10;;
61015;SDS011;46902;52.920;6.536;2023-11-21T06:37:19;38.92;;;17.85;;
61015;SDS011;46902;52.920;6.536;2023-11-21T06:39:48;40.40;;;17.70;;
61015;SDS011;46902;52.920;6.536;2023-11-21T06:42:14;45.70;;;19.05;;
61015;SDS011;46902;52.920;6.536;2023-11-21T06:44:40;38.38;;;17.77;;
61015;SDS011;46902;52.920;6.536;2023-11-21T06:47:06;44.22;;;17.70;;
61015;SDS011;46902;52.920;6.536;2023-11-21T06:49:32;33.25;;;16.00;;
61015;SDS011;46902;52.920;6.536;2023-11-21T06:51:58;43.47;;;18.95;;
61015;SDS011;46902;52.920;6.536;2023-11-21T06:54:24;29.13;;;15.07;;
61015;SDS011;46902;52.920;6.536;2023-11-21T06:56:52;38.60;;;17.60;;
61015;SDS011;46902;52.920;6.536;2023-11-21T06:59:18;33.35;;;16.15;;
61015;SDS011;46902;52.920;6.536;2023-11-21T07:01:44;34.63;;;15.18;;
61015;SDS011;46902;52.920;6.536;2023-11-21T07:04:09;32.67;;;15.50;;
61015;SDS011;46902;52.920;6.536;2023-11-21T07:06:35;40.72;;;16.83;;
61015;SDS011;46902;52.920;6.536;2023-11-21T07:09:01;33.92;;;15.15;;
61015;SDS011;46902;52.920;6.536;2023-11-21T07:11:28;25.55;;;13.35;;
61015;SDS011;46902;52.920;6.536;2023-11-21T07:13:53;22.40;;;11.75;;
61015;SDS011;46902;52.920;6.536;2023-11-21T07:16:19;22.73;;;12.23;;
61015;SDS011;46902;52.920;6.536;2023-11-21T07:18:45;22.27;;;11.48;;
61015;SDS011;46902;52.920;6.536;2023-11-21T07:21:11;24.75;;;13.00;;
61015;SDS011;46902;52.920;6.536;2023-11-21T07:23:40;25.88;;;12.02;;
61015;SDS011;46902;52.920;6.536;2023-11-21T07:26:06;22.17;;;11.88;;
61015;SDS011;46902;52.920;6.536;2023-11-21T07:28:34;28.52;;;14.70;;
61015;SDS011;46902;52.920;6.536;2023-11-21T07:31:01;21.52;;;12.57;;
61015;SDS011;46902;52.920;6.536;2023-11-21T07:33:27;25.25;;;12.65;;
61015;SDS011;46902;52.920;6.536;2023-11-21T07:35:52;23.70;;;13.23;;
61015;SDS011;46902;52.920;6.536;2023-11-21T07:38:18;24.95;;;14.00;;
61015;SDS011;46902;52.920;6.536;2023-11-21T07:40:43;28.60;;;14.25;;
61015;SDS011;46902;52.920;6.536;2023-11-21T07:43:09;26.15;;;13.52;;
61015;SDS011;46902;52.920;6.536;2023-11-21T07:45:35;25.40;;;13.73;;
61015;SDS011;46902;52.920;6.536;2023-11-21T07:48:01;26.90;;;13.95;;
61015;SDS011;46902;52.920;6.536;2023-11-21T07:50:28;28.35;;;14.30;;
61015;SDS011;46902;52.920;6.536;2023-11-21T07:52:54;25.15;;;14.07;;
61015;SDS011;46902;52.920;6.536;2023-11-21T07:55:20;23.80;;;14.18;;
61015;SDS011;46902;52.920;6.536;2023-11-21T07:57:46;30.13;;;15.02;;
61015;SDS011;46902;52.920;6.536;2023-11-21T08:00:12;24.75;;;13.77;;
61015;SDS011;46902;52.920;6.536;2023-11-21T08:02:40;21.42;;;13.23;;
61015;SDS011;46902;52.920;6.536;2023-11-21T08:05:11;30.33;;;14.50;;
61015;SDS011;46902;52.920;6.536;2023-11-21T08:07:37;27.30;;;14.10;;
61015;SDS011;46902;52.920;6.536;2023-11-21T08:10:03;22.02;;;12.63;;
61015;SDS011;46902;52.920;6.536;2023-11-21T08:12:30;22.30;;;12.48;;
61015;SDS011;46902;52.920;6.536;2023-11-21T08:14:55;23.65;;;13.32;;
61015;SDS011;46902;52.920;6.536;2023-11-21T08:17:21;28.88;;;14.70;;
61015;SDS011;46902;52.920;6.536;2023-11-21T08:19:47;40.42;;;15.88;;
61015;SDS011;46902;52.920;6.536;2023-11-21T08:22:17;41.40;;;18.00;;
61015;SDS011;46902;52.920;6.536;2023-11-21T08:24:43;38.53;;;17.50;;
61015;SDS011;46902;52.920;6.536;2023-11-21T08:27:09;41.58;;;18.58;;
61015;SDS011;46902;52.920;6.536;2023-11-21T08:29:35;38.70;;;17.85;;
61015;SDS011;46902;52.920;6.536;2023-11-21T08:32:01;38.25;;;18.35;;
61015;SDS011;46902;52.920;6.536;2023-11-21T08:34:27;33.63;;;16.77;;
61015;SDS011;46902;52.920;6.536;2023-11-21T08:36:53;35.80;;;18.02;;
61015;SDS011;46902;52.920;6.536;2023-11-21T08:39:20;28.88;;;16.08;;
61015;SDS011;46902;52.920;6.536;2023-11-21T08:41:49;34.92;;;17.65;;
61015;SDS011;46902;52.920;6.536;2023-11-21T08:44:15;29.38;;;17.02;;
61015;SDS011;46902;52.920;6.536;2023-11-21T08:46:43;31.25;;;16.55;;
61015;SDS011;46902;52.920;6.536;2023-11-21T08:49:10;28.85;;;16.45;;
61015;SDS011;46902;52.920;6.536;2023-11-21T08:51:36;26.63;;;15.68;;
61015;SDS011;46902;52.920;6.536;2023-11-21T08:54:02;28.08;;;16.20;;
61015;SDS011;46902;52.920;6.536;2023-11-21T08:56:32;30.63;;;17.88;;
61015;SDS011;46902;52.920;6.536;2023-11-21T08:58:57;37.67;;;20.00;;
61015;SDS011;46902;52.920;6.536;2023-11-21T09:01:23;41.85;;;20.75;;
61015;SDS011;46902;52.920;6.536;2023-11-21T09:03:49;43.28;;;23.10;;
61015;SDS011;46902;52.920;6.536;2023-11-21T09:06:15;47.35;;;24.23;;
61015;SDS011;46902;52.920;6.536;2023-11-21T09:08:40;54.00;;;25.33;;
61015;SDS011;46902;52.920;6.536;2023-11-21T09:11:07;46.47;;;25.08;;
61015;SDS011;46902;52.920;6.536;2023-11-21T09:13:33;43.20;;;24.23;;
61015;SDS011;46902;52.920;6.536;2023-11-21T09:15:59;46.55;;;26.25;;
61015;SDS011;46902;52.920;6.536;2023-11-21T09:18:25;39.13;;;25.25;;
61015;SDS011;46902;52.920;6.536;2023-11-21T09:20:50;43.45;;;25.30;;
61015;SDS011;46902;52.920;6.536;2023-11-21T09:23:16;39.40;;;24.23;;
61015;SDS011;46902;52.920;6.536;2023-11-21T09:25:42;37.33;;;24.40;;
61015;SDS011;46902;52.920;6.536;2023-11-21T09:28:11;30.77;;;21.90;;
61015;SDS011;46902;52.920;6.536;2023-11-21T09:30:37;33.90;;;22.65;;
61015;SDS011;46902;52.920;6.536;2023-11-21T09:33:03;30.40;;;21.23;;
61015;SDS011;46902;52.920;6.536;2023-11-21T09:35:32;36.33;;;22.58;;
61015;SDS011;46902;52.920;6.536;2023-11-21T09:37:57;32.10;;;22.85;;
61015;SDS011;46902;52.920;6.536;2023-11-21T09:40:23;29.63;;;21.42;;
61015;SDS011;46902;52.920;6.536;2023-11-21T09:42:58;28.02;;;21.65;;
61015;SDS011;46902;52.920;6.536;2023-11-21T09:45:26;34.03;;;22.58;;
61015;SDS011;46902;52.920;6.536;2023-11-21T09:47:54;32.30;;;23.23;;
61015;SDS011;46902;52.920;6.536;2023-11-21T09:50:20;29.25;;;22.27;;
61015;SDS011;46902;52.920;6.536;2023-11-21T09:52:54;27.83;;;21.10;;
61015;SDS011;46902;52.920;6.536;2023-11-21T09:55:30;28.23;;;20.37;;
61015;SDS011;46902;52.920;6.536;2023-11-21T09:58:01;29.15;;;20.92;;
61015;SDS011;46902;52.920;6.536;2023-11-21T10:00:28;27.10;;;20.77;;
61015;SDS011;46902;52.920;6.536;2023-11-21T10:02:58;27.38;;;20.73;;
61015;SDS011;46902;52.920;6.536;2023-11-21T10:05:24;23.50;;;18.83;;
61015;SDS011;46902;52.920;6.536;2023-11-21T10:07:50;24.67;;;20.20;;
61015;SDS011;46902;52.920;6.536;2023-11-21T10:10:17;26.33;;;20.40;;
61015;SDS011;46902;52.920;6.536;2023-11-21T10:12:50;23.17;;;18.10;;
61015;SDS011;46902;52.920;6.536;2023-11-21T10:15:23;17.65;;;15.75;;
61015;SDS011;46902;52.920;6.536;2023-11-21T10:17:52;22.23;;;16.80;;
61015;SDS011;46902;52.920;6.536;2023-11-21T10:20:20;20.58;;;16.38;;
61015;SDS011;46902;52.920;6.536;2023-11-21T10:22:47;21.25;;;15.80;;
61015;SDS011;46902;52.920;6.536;2023-11-21T10:25:14;18.60;;;15.80;;
61015;SDS011;46902;52.920;6.536;2023-11-21T10:27:40;21.45;;;16.23;;
61015;SDS011;46902;52.920;6.536;2023-11-21T10:30:07;20.33;;;15.63;;
61015;SDS011;46902;52.920;6.536;2023-11-21T10:32:41;17.60;;;14.75;;
61015;SDS011;46902;52.920;6.536;2023-11-21T10:35:07;21.92;;;16.65;;
61015;SDS011;46902;52.920;6.536;2023-11-21T10:37:37;21.58;;;15.60;;
61015;SDS011;46902;52.920;6.536;2023-11-21T10:40:09;20.13;;;16.63;;
61015;SDS011;46902;52.920;6.536;2023-11-21T10:45:05;19.23;;;16.02;;
61015;SDS011;46902;52.920;6.536;2023-11-21T10:47:43;17.30;;;14.43;;
61015;SDS011;46902;52.920;6.536;2023-11-21T10:50:09;18.70;;;13.75;;
61015;SDS011;46902;52.920;6.536;2023-11-21T10:52:39;17.73;;;13.30;;
61015;SDS011;46902;52.920;6.536;2023-11-21T10:55:20;15.25;;;12.82;;
61015;SDS011;46902;52.920;6.536;2023-11-21T10:57:52;15.15;;;11.57;;
61015;SDS011;46902;52.920;6.536;2023-11-21T11:00:19;16.08;;;11.45;;
61015;SDS011;46902;52.920;6.536;2023-11-21T11:02:46;13.63;;;11.35;;
61015;SDS011;46902;52.920;6.536;2023-11-21T11:05:15;13.35;;;11.05;;
61015;SDS011;46902;52.920;6.536;2023-11-21T11:07:44;12.95;;;10.43;;
61015;SDS011;46902;52.920;6.536;2023-11-21T11:10:11;12.43;;;10.13;;
61015;SDS011;46902;52.920;6.536;2023-11-21T11:12:39;11.27;;;9.30;;
61015;SDS011;46902;52.920;6.536;2023-11-21T11:15:07;9.77;;;8.23;;
61015;SDS011;46902;52.920;6.536;2023-11-21T11:17:35;11.65;;;8.68;;
61015;SDS011;46902;52.920;6.536;2023-11-21T11:20:03;9.45;;;7.53;;
61015;SDS011;46902;52.920;6.536;2023-11-21T11:22:36;10.02;;;7.80;;
61015;SDS011;46902;52.920;6.536;2023-11-21T11:25:32;10.30;;;6.78;;
61015;SDS011;46902;52.920;6.536;2023-11-21T11:28:07;8.63;;;7.35;;
61015;SDS011;46902;52.920;6.536;2023-11-21T11:30:47;12.52;;;7.03;;
61015;SDS011;46902;52.920;6.536;2023-11-21T11:33:37;10.80;;;7.40;;
61015;SDS011;46902;52.920;6.536;2023-11-21T11:38:53;8.95;;;7.43;;
61015;SDS011;46902;52.920;6.536;2023-11-21T11:41:24;8.75;;;6.90;;
61015;SDS011;46902;52.920;6.536;2023-11-21T11:43:55;8.38;;;6.47;;
61015;SDS011;46902;52.920;6.536;2023-11-21T11:46:27;10.25;;;7.22;;
61015;SDS011;46902;52.920;6.536;2023-11-21T11:49:10;9.20;;;6.72;;
61015;SDS011;46902;52.920;6.536;2023-11-21T11:51:48;9.00;;;7.40;;
61015;SDS011;46902;52.920;6.536;2023-11-21T11:54:13;8.60;;;7.00;;
61015;SDS011;46902;52.920;6.536;2023-11-21T11:56:39;8.48;;;7.25;;
61015;SDS011;46902;52.920;6.536;2023-11-21T11:59:05;10.60;;;7.90;;
61015;SDS011;46902;52.920;6.536;2023-11-21T12:01:34;9.63;;;7.43;;
61015;SDS011;46902;52.920;6.536;2023-11-21T12:06:45;9.70;;;7.55;;
61015;SDS011;46902;52.920;6.536;2023-11-21T12:09:44;9.35;;;7.00;;
61015;SDS011;46902;52.920;6.536;2023-11-21T12:12:03;8.43;;;6.57;;
61015;SDS011;46902;52.920;6.536;2023-11-21T12:14:30;8.38;;;6.70;;
61015;SDS011;46902;52.920;6.536;2023-11-21T12:16:56;9.77;;;6.95;;
61015;SDS011;46902;52.920;6.536;2023-11-21T12:19:22;8.80;;;6.95;;
61015;SDS011;46902;52.920;6.536;2023-11-21T12:21:47;8.75;;;6.45;;
61015;SDS011;46902;52.920;6.536;2023-11-21T12:24:14;9.25;;;7.22;;
61015;SDS011;46902;52.920;6.536;2023-11-21T12:26:41;9.10;;;6.88;;
61015;SDS011;46902;52.920;6.536;2023-11-21T12:29:07;9.77;;;7.05;;
61015;SDS011;46902;52.920;6.536;2023-11-21T12:31:33;8.77;;;7.07;;
61015;SDS011;46902;52.920;6.536;2023-11-21T12:33:59;8.80;;;6.57;;
61015;SDS011;46902;52.920;6.536;2023-11-21T12:36:25;12.35;;;5.97;;
61015;SDS011;46902;52.920;6.536;2023-11-21T12:38:51;9.75;;;6.53;;
61015;SDS011;46902;52.920;6.536;2023-11-21T12:41:17;8.65;;;7.03;;
61015;SDS011;46902;52.920;6.536;2023-11-21T12:43:43;7.82;;;6.20;;
61015;SDS011;46902;52.920;6.536;2023-11-21T12:46:09;10.45;;;5.97;;
61015;SDS011;46902;52.920;6.536;2023-11-21T12:48:39;8.15;;;5.43;;
61015;SDS011;46902;52.920;6.536;2023-11-21T12:51:09;7.57;;;5.93;;
61015;SDS011;46902;52.920;6.536;2023-11-21T12:53:43;7.72;;;6.18;;
61015;SDS011;46902;52.920;6.536;2023-11-21T12:58:36;8.45;;;6.22;;
61015;SDS011;46902;52.920;6.536;2023-11-21T13:01:07;9.63;;;6.25;;
61015;SDS011;46902;52.920;6.536;2023-11-21T13:03:43;8.68;;;6.35;;
61015;SDS011;46902;52.920;6.536;2023-11-21T13:06:16;8.25;;;6.10;;
61015;SDS011;46902;52.920;6.536;2023-11-21T13:08:43;8.30;;;6.40;;
61015;SDS011;46902;52.920;6.536;2023-11-21T13:11:10;7.78;;;6.70;;
61015;SDS011;46902;52.920;6.536;2023-11-21T13:13:36;7.78;;;6.13;;
61015;SDS011;46902;52.920;6.536;2023-11-21T13:16:05;7.95;;;5.88;;
61015;SDS011;46902;52.920;6.536;2023-11-21T13:18:33;7.40;;;5.60;;
61015;SDS011;46902;52.920;6.536;2023-11-21T13:21:01;8.93;;;6.10;;
61015;SDS011;46902;52.920;6.536;2023-11-21T13:23:34;8.15;;;6.07;;
61015;SDS011;46902;52.920;6.536;2023-11-21T13:26:03;7.85;;;6.32;;
61015;SDS011;46902;52.920;6.536;2023-11-21T13:28:29;8.40;;;6.47;;
61015;SDS011;46902;52.920;6.536;2023-11-21T13:30:58;8.10;;;5.82;;
61015;SDS011;46902;52.920;6.536;2023-11-21T13:33:28;8.45;;;5.72;;
61015;SDS011;46902;52.920;6.536;2023-11-21T13:35:54;9.82;;;6.38;;
61015;SDS011;46902;52.920;6.536;2023-11-21T13:38:21;9.20;;;6.15;;
61015;SDS011;46902;52.920;6.536;2023-11-21T13:40:49;8.20;;;5.80;;
61015;SDS011;46902;52.920;6.536;2023-11-21T13:43:18;7.95;;;6.07;;
61015;SDS011;46902;52.920;6.536;2023-11-21T13:45:47;7.32;;;5.63;;
61015;SDS011;46902;52.920;6.536;2023-11-21T13:48:16;8.23;;;5.55;;
61015;SDS011;46902;52.920;6.536;2023-11-21T13:50:50;7.93;;;5.70;;
61015;SDS011;46902;52.920;6.536;2023-11-21T13:53:35;7.90;;;5.80;;
61015;SDS011;46902;52.920;6.536;2023-11-21T13:56:02;7.28;;;5.15;;
61015;SDS011;46902;52.920;6.536;2023-11-21T13:58:29;6.72;;;4.93;;
61015;SDS011;46902;52.920;6.536;2023-11-21T14:01:09;7.95;;;5.20;;
61015;SDS011;46902;52.920;6.536;2023-11-21T14:04:02;8.43;;;5.20;;
61015;SDS011;46902;52.920;6.536;2023-11-21T14:06:41;8.18;;;4.95;;
61015;SDS011;46902;52.920;6.536;2023-11-21T14:09:16;7.90;;;5.50;;
61015;SDS011;46902;52.920;6.536;2023-11-21T14:12:00;10.13;;;5.32;;
61015;SDS011;46902;52.920;6.536;2023-11-21T14:14:31;8.10;;;4.50;;
61015;SDS011;46902;52.920;6.536;2023-11-21T14:16:57;8.27;;;4.90;;
61015;SDS011;46902;52.920;6.536;2023-11-21T14:19:23;7.00;;;4.10;;
61015;SDS011;46902;52.920;6.536;2023-11-21T14:21:54;6.38;;;4.80;;
61015;SDS011;46902;52.920;6.536;2023-11-21T14:24:21;9.35;;;5.18;;
61015;SDS011;46902;52.920;6.536;2023-11-21T14:26:48;7.75;;;5.70;;
61015;SDS011;46902;52.920;6.536;2023-11-21T14:29:17;9.18;;;5.55;;
61015;SDS011;46902;52.920;6.536;2023-11-21T14:31:48;7.63;;;4.78;;
61015;SDS011;46902;52.920;6.536;2023-11-21T14:34:16;7.68;;;4.60;;
61015;SDS011;46902;52.920;6.536;2023-11-21T14:36:42;10.70;;;5.70;;
61015;SDS011;46902;52.920;6.536;2023-11-21T14:39:09;8.40;;;5.32;;